Terminal Aerodrome Forecast
Issued by NWS Northern Indiana

Home | Current Version | Previous Version | Text Only | Print | Product List | Glossary On
Versions: 1 2 3 4 5 6 7 8 9 10 11 12 13 14 15
820
FTUS43 KIWX 170520
TAFFWA
TAF
KFWA 170520Z 1706/1806 21005KT P6SM FEW250
     FM171500 23014G20KT P6SM SKC=

USA.gov is the U.S. government's official web portal to all federal, state and local government web resources and services.